PWSweather.com
Personal Weather Stations
Station Observations
JOE4SPEED
Jupiter, Fl, Jupiter, FL 33458

Jupiter, FlJupiter, FL 33458

Lat: 26.9373, Lon: -80.1101

Elevation: 12

Station Type: Davis VP 2

http://www.joe4speed.com/wxindex.php

High Low Average
Temperature 84.7°F29.3°C 75.6°F24.2°C 79.6°F26.4°C
Dew Point 71.1°F21.7°C 62.2°F16.8°C 67.1°F19.5°C
Winds 9.2 mph 14.8 kmh 1.2 mph 1.9 kmh 5.0 mph E8.0 kmh E
Wind Gusts 15.0 mph24.1 kmh 1.2 mph1.9 kmh 7.0 mph11.3 kmh
Humidity 78% 54% 66%
Pressure 30.20 in1022.7 mb 30.12 in1020.0 mb -
Precipitation 0.00 in0.0 mm - -
Hour Temp Dew Point Humidity Winds Wind Gusts Pressure Precip Precip Rate Daily Precip Total
12:00 AM 78.7°F25.9°C 66.8°F19.3°C 67% 4.6 mph ESE7.4 kmh ESE 8.1 mph13.0 kmh 30.14 in1020.7 mb - 0.00 in0.0 mm 0.00 in0.0 mm
12:10 AM 78.5°F25.8°C 67.1°F19.5°C 68% 4.6 mph E7.4 kmh E 4.6 mph7.4 kmh 30.14 in1020.7 mb - 0.00 in0.0 mm 0.00 in0.0 mm
12:20 AM 78.2°F25.7°C 66.8°F19.3°C 68% 5.8 mph ESE9.3 kmh ESE 9.2 mph14.8 kmh 30.14 in1020.7 mb - 0.00 in0.0 mm 0.00 in0.0 mm
12:30 AM 78.5°F25.8°C 66.2°F19.0°C 66% 8.1 mph ESE13.0 kmh ESE 11.5 mph18.5 kmh 30.13 in1020.3 mb - 0.00 in0.0 mm 0.00 in0.0 mm
12:40 AM 78.5°F25.8°C 66.2°F19.0°C 66% 4.6 mph E7.4 kmh E 8.1 mph13.0 kmh 30.13 in1020.3 mb - 0.00 in0.0 mm 0.00 in0.0 mm
12:50 AM 78.3°F25.7°C 66.4°F19.1°C 67% 3.5 mph SE5.6 kmh SE 6.9 mph11.1 kmh 30.13 in1020.3 mb - 0.00 in0.0 mm 0.00 in0.0 mm
01:00 AM 78.1°F25.6°C 67.1°F19.5°C 69% 3.5 mph ESE5.6 kmh ESE 5.8 mph9.3 kmh 30.13 in1020.3 mb - 0.00 in0.0 mm 0.00 in0.0 mm
01:10 AM 77.9°F25.5°C 66.9°F19.4°C 69% 4.6 mph E7.4 kmh E 6.9 mph11.1 kmh 30.13 in1020.3 mb - 0.00 in0.0 mm 0.00 in0.0 mm
01:20 AM 77.8°F25.4°C 66.8°F19.3°C 69% 3.5 mph ESE5.6 kmh ESE 4.6 mph7.4 kmh 30.13 in1020.3 mb - 0.00 in0.0 mm 0.00 in0.0 mm
01:30 AM 77.7°F25.4°C 67.1°F19.5°C 70% 3.5 mph E5.6 kmh E 5.8 mph9.3 kmh 30.12 in1020.0 mb - 0.00 in0.0 mm 0.00 in0.0 mm
01:40 AM 77.8°F25.4°C 66.8°F19.3°C 69% 4.6 mph E7.4 kmh E 6.9 mph11.1 kmh 30.13 in1020.3 mb - 0.00 in0.0 mm 0.00 in0.0 mm
01:50 AM 77.7°F25.4°C 66.7°F19.3°C 69% 4.6 mph ESE7.4 kmh ESE 4.6 mph7.4 kmh 30.13 in1020.3 mb - 0.00 in0.0 mm 0.00 in0.0 mm
02:00 AM 77.7°F25.4°C 67.5°F19.7°C 71% 1.2 mph E1.9 kmh E 2.3 mph3.7 kmh 30.12 in1020.0 mb - 0.00 in0.0 mm 0.00 in0.0 mm
02:10 AM 77.5°F25.3°C 67.7°F19.8°C 72% 3.5 mph E5.6 kmh E 4.6 mph7.4 kmh 30.12 in1020.0 mb - 0.00 in0.0 mm 0.00 in0.0 mm
02:20 AM 77.3°F25.2°C 67.2°F19.6°C 71% 4.6 mph ESE7.4 kmh ESE 5.8 mph9.3 kmh 30.12 in1020.0 mb - 0.00 in0.0 mm 0.00 in0.0 mm
02:30 AM 77.4°F25.2°C 67.6°F19.8°C 72% 4.6 mph E7.4 kmh E 6.9 mph11.1 kmh 30.12 in1020.0 mb - 0.00 in0.0 mm 0.00 in0.0 mm
02:40 AM 77.3°F25.2°C 67.2°F19.6°C 71% 4.6 mph E7.4 kmh E 4.6 mph7.4 kmh 30.12 in1020.0 mb - 0.00 in0.0 mm 0.00 in0.0 mm
02:50 AM 77.4°F25.2°C 67.7°F19.8°C 72% 2.3 mph E3.7 kmh E 9.2 mph14.8 kmh 30.12 in1020.0 mb - 0.00 in0.0 mm 0.00 in0.0 mm
03:00 AM 77.6°F25.3°C 68.7°F20.4°C 74% 4.6 mph E7.4 kmh E 8.1 mph13.0 kmh 30.12 in1020.0 mb - 0.00 in0.0 mm 0.00 in0.0 mm
03:10 AM 77.5°F25.3°C 68.9°F20.5°C 75% 3.5 mph E5.6 kmh E 6.9 mph11.1 kmh 30.12 in1020.0 mb - 0.00 in0.0 mm 0.00 in0.0 mm
03:20 AM 77.4°F25.2°C 68.9°F20.5°C 75% 3.5 mph E5.6 kmh E 6.9 mph11.1 kmh 30.12 in1020.0 mb - 0.00 in0.0 mm 0.00 in0.0 mm
03:30 AM 77.3°F25.2°C 68.8°F20.4°C 75% 3.5 mph E5.6 kmh E 3.5 mph5.6 kmh 30.12 in1020.0 mb - 0.00 in0.0 mm 0.00 in0.0 mm
03:40 AM 77.2°F25.1°C 68.7°F20.4°C 75% 5.8 mph E9.3 kmh E 8.1 mph13.0 kmh 30.12 in1020.0 mb - 0.00 in0.0 mm 0.00 in0.0 mm
03:50 AM 77.1°F25.1°C 68.6°F20.3°C 75% 3.5 mph E5.6 kmh E 4.6 mph7.4 kmh 30.12 in1020.0 mb - 0.00 in0.0 mm 0.00 in0.0 mm
04:00 AM 77.0°F25.0°C 68.5°F20.3°C 75% 4.6 mph E7.4 kmh E 6.9 mph11.1 kmh 30.12 in1020.0 mb - 0.00 in0.0 mm 0.00 in0.0 mm
04:10 AM 77.1°F25.1°C 68.6°F20.3°C 75% 3.5 mph E5.6 kmh E 10.4 mph16.7 kmh 30.12 in1020.0 mb - 0.00 in0.0 mm 0.00 in0.0 mm
04:20 AM 77.1°F25.1°C 68.5°F20.3°C 75% 3.5 mph E5.6 kmh E 3.5 mph5.6 kmh 30.12 in1020.0 mb - 0.00 in0.0 mm 0.00 in0.0 mm
04:30 AM 76.9°F24.9°C 68.4°F20.2°C 75% 2.3 mph ESE3.7 kmh ESE 3.5 mph5.6 kmh 30.12 in1020.0 mb - 0.00 in0.0 mm 0.00 in0.0 mm
04:40 AM 77.0°F25.0°C 68.9°F20.5°C 76% 4.6 mph E7.4 kmh E 4.6 mph7.4 kmh 30.12 in1020.0 mb - 0.00 in0.0 mm 0.00 in0.0 mm
04:50 AM 77.0°F25.0°C 69.6°F20.9°C 78% 2.3 mph E3.7 kmh E 5.8 mph9.3 kmh 30.12 in1020.0 mb - 0.00 in0.0 mm 0.00 in0.0 mm
05:00 AM 77.0°F25.0°C 69.6°F20.9°C 78% 3.5 mph E5.6 kmh E 9.2 mph14.8 kmh 30.12 in1020.0 mb - 0.00 in0.0 mm 0.00 in0.0 mm
05:10 AM 77.2°F25.1°C 69.8°F21.0°C 78% 2.3 mph E3.7 kmh E 5.8 mph9.3 kmh 30.12 in1020.0 mb - 0.00 in0.0 mm 0.00 in0.0 mm
05:20 AM 77.0°F25.0°C 69.6°F20.9°C 78% 3.5 mph E5.6 kmh E 4.6 mph7.4 kmh 30.12 in1020.0 mb - 0.00 in0.0 mm 0.00 in0.0 mm
05:30 AM 77.0°F25.0°C 69.6°F20.9°C 78% 3.5 mph E5.6 kmh E 4.6 mph7.4 kmh 30.12 in1020.0 mb - 0.00 in0.0 mm 0.00 in0.0 mm
05:40 AM 76.9°F24.9°C 69.5°F20.8°C 78% 3.5 mph E5.6 kmh E 5.8 mph9.3 kmh 30.12 in1020.0 mb - 0.00 in0.0 mm 0.00 in0.0 mm
05:50 AM 76.7°F24.8°C 69.3°F20.7°C 78% 4.6 mph E7.4 kmh E 6.9 mph11.1 kmh 30.12 in1020.0 mb - 0.00 in0.0 mm 0.00 in0.0 mm
06:00 AM 76.6°F24.8°C 69.2°F20.7°C 78% 3.5 mph E5.6 kmh E 4.6 mph7.4 kmh 30.12 in1020.0 mb - 0.00 in0.0 mm 0.00 in0.0 mm
06:10 AM 76.7°F24.8°C 69.3°F20.7°C 78% 3.5 mph E5.6 kmh E 5.8 mph9.3 kmh 30.13 in1020.3 mb - 0.00 in0.0 mm 0.00 in0.0 mm
06:20 AM 76.6°F24.8°C 69.2°F20.7°C 78% 5.8 mph ESE9.3 kmh ESE 8.1 mph13.0 kmh 30.13 in1020.3 mb - 0.00 in0.0 mm 0.00 in0.0 mm
06:30 AM 76.7°F24.8°C 68.9°F20.5°C 77% 3.5 mph E5.6 kmh E 4.6 mph7.4 kmh 30.14 in1020.7 mb - 0.00 in0.0 mm 0.00 in0.0 mm
06:40 AM 76.5°F24.7°C 68.7°F20.4°C 77% 4.6 mph E7.4 kmh E 5.8 mph9.3 kmh 30.14 in1020.7 mb - 0.00 in0.0 mm 0.00 in0.0 mm
06:50 AM 76.7°F24.8°C 68.9°F20.5°C 77% 4.6 mph E7.4 kmh E 8.1 mph13.0 kmh 30.14 in1020.7 mb - 0.00 in0.0 mm 0.00 in0.0 mm
07:00 AM 76.8°F24.9°C 69.0°F20.6°C 77% 3.5 mph E5.6 kmh E 6.9 mph11.1 kmh 30.14 in1020.7 mb - 0.00 in0.0 mm 0.00 in0.0 mm
07:10 AM 76.9°F24.9°C 68.8°F20.4°C 76% 3.5 mph E5.6 kmh E 3.5 mph5.6 kmh 30.14 in1020.7 mb - 0.00 in0.0 mm 0.00 in0.0 mm
07:20 AM 76.9°F24.9°C 68.8°F20.4°C 76% 5.8 mph E9.3 kmh E 9.2 mph14.8 kmh 30.15 in1021.0 mb - 0.00 in0.0 mm 0.00 in0.0 mm
07:30 AM 77.1°F25.1°C 69.0°F20.6°C 76% 2.3 mph E3.7 kmh E 3.5 mph5.6 kmh 30.15 in1021.0 mb - 0.00 in0.0 mm 0.00 in0.0 mm
07:40 AM 77.5°F25.3°C 69.3°F20.7°C 76% 4.6 mph E7.4 kmh E 8.1 mph13.0 kmh 30.15 in1021.0 mb - 0.00 in0.0 mm 0.00 in0.0 mm
07:50 AM 77.8°F25.4°C 69.6°F20.9°C 76% 4.6 mph E7.4 kmh E 5.8 mph9.3 kmh 30.15 in1021.0 mb - 0.00 in0.0 mm 0.00 in0.0 mm
08:00 AM 78.1°F25.6°C 69.1°F20.6°C 74% 4.6 mph E7.4 kmh E 8.1 mph13.0 kmh 30.15 in1021.0 mb - 0.00 in0.0 mm 0.00 in0.0 mm
08:10 AM 78.5°F25.8°C 69.5°F20.8°C 74% 5.8 mph ESE9.3 kmh ESE 10.4 mph16.7 kmh 30.15 in1021.0 mb - 0.00 in0.0 mm 0.00 in0.0 mm
08:20 AM 78.9°F26.1°C 69.5°F20.8°C 73% 5.8 mph E9.3 kmh E 8.1 mph13.0 kmh 30.16 in1021.3 mb - 0.00 in0.0 mm 0.00 in0.0 mm
08:30 AM 79.4°F26.3°C 69.2°F20.7°C 71% 5.8 mph SE9.3 kmh SE 6.9 mph11.1 kmh 30.16 in1021.3 mb - 0.00 in0.0 mm 0.00 in0.0 mm
08:40 AM 79.6°F26.4°C 69.0°F20.6°C 70% 5.8 mph E9.3 kmh E 9.2 mph14.8 kmh 30.17 in1021.7 mb - 0.00 in0.0 mm 0.00 in0.0 mm
08:50 AM 79.7°F26.5°C 68.7°F20.4°C 69% 4.6 mph E7.4 kmh E 5.8 mph9.3 kmh 30.17 in1021.7 mb - 0.00 in0.0 mm 0.00 in0.0 mm
09:00 AM 80.2°F26.8°C 68.7°F20.4°C 68% 6.9 mph ESE11.1 kmh ESE 9.2 mph14.8 kmh 30.17 in1021.7 mb - 0.00 in0.0 mm 0.00 in0.0 mm
09:10 AM 80.4°F26.9°C 69.3°F20.7°C 69% 3.5 mph E5.6 kmh E 5.8 mph9.3 kmh 30.18 in1022.0 mb - 0.00 in0.0 mm 0.00 in0.0 mm
09:20 AM 80.8°F27.1°C 69.3°F20.7°C 68% 3.5 mph E5.6 kmh E 5.8 mph9.3 kmh 30.18 in1022.0 mb - 0.00 in0.0 mm 0.00 in0.0 mm
09:30 AM 80.9°F27.2°C 69.3°F20.7°C 68% 4.6 mph ENE7.4 kmh ENE 6.9 mph11.1 kmh 30.18 in1022.0 mb - 0.00 in0.0 mm 0.00 in0.0 mm
09:40 AM 81.3°F27.4°C 69.3°F20.7°C 67% 5.8 mph E9.3 kmh E 11.5 mph18.5 kmh 30.18 in1022.0 mb - 0.00 in0.0 mm 0.00 in0.0 mm
09:50 AM 82.0°F27.8°C 69.9°F21.1°C 67% 4.6 mph ESE7.4 kmh ESE 5.8 mph9.3 kmh 30.19 in1022.4 mb - 0.00 in0.0 mm 0.00 in0.0 mm
10:00 AM 82.0°F27.8°C 70.0°F21.1°C 67% 4.6 mph E7.4 kmh E 9.2 mph14.8 kmh 30.19 in1022.4 mb - 0.00 in0.0 mm 0.00 in0.0 mm
10:10 AM 81.8°F27.7°C 69.4°F20.8°C 66% 8.1 mph ESE13.0 kmh ESE 12.7 mph20.4 kmh 30.19 in1022.4 mb - 0.00 in0.0 mm 0.00 in0.0 mm
10:20 AM 81.9°F27.7°C 69.9°F21.1°C 67% 3.5 mph E5.6 kmh E 8.1 mph13.0 kmh 30.19 in1022.4 mb - 0.00 in0.0 mm 0.00 in0.0 mm
10:30 AM 82.7°F28.2°C 70.2°F21.2°C 66% 6.9 mph E11.1 kmh E 9.2 mph14.8 kmh 30.19 in1022.4 mb - 0.00 in0.0 mm 0.00 in0.0 mm
10:40 AM 83.1°F28.4°C 70.1°F21.2°C 65% 4.6 mph E7.4 kmh E 10.4 mph16.7 kmh 30.19 in1022.4 mb - 0.00 in0.0 mm 0.00 in0.0 mm
10:50 AM 82.8°F28.2°C 70.3°F21.3°C 66% 4.6 mph NE7.4 kmh NE 6.9 mph11.1 kmh 30.19 in1022.4 mb - 0.00 in0.0 mm 0.00 in0.0 mm
11:00 AM 83.2°F28.4°C 69.8°F21.0°C 64% 4.6 mph E7.4 kmh E 12.7 mph20.4 kmh 30.20 in1022.7 mb - 0.00 in0.0 mm 0.00 in0.0 mm
11:10 AM 82.3°F27.9°C 70.2°F21.2°C 67% 6.9 mph E11.1 kmh E 11.5 mph18.5 kmh 30.20 in1022.7 mb - 0.00 in0.0 mm 0.00 in0.0 mm
11:20 AM 82.8°F28.2°C 70.7°F21.5°C 67% 5.8 mph E9.3 kmh E 6.9 mph11.1 kmh 30.20 in1022.7 mb - 0.00 in0.0 mm 0.00 in0.0 mm
11:30 AM 82.5°F28.1°C 70.5°F21.4°C 67% 6.9 mph ESE11.1 kmh ESE 8.1 mph13.0 kmh 30.20 in1022.7 mb - 0.00 in0.0 mm 0.00 in0.0 mm
11:40 AM 83.0°F28.3°C 70.5°F21.4°C 66% 5.8 mph ENE9.3 kmh ENE 6.9 mph11.1 kmh 30.20 in1022.7 mb - 0.00 in0.0 mm 0.00 in0.0 mm
11:50 AM 82.8°F28.2°C 69.8°F21.0°C 65% 4.6 mph E7.4 kmh E 11.5 mph18.5 kmh 30.20 in1022.7 mb - 0.00 in0.0 mm 0.00 in0.0 mm
12:00 PM 82.5°F28.1°C 69.6°F20.9°C 65% 8.1 mph E13.0 kmh E 11.5 mph18.5 kmh 30.20 in1022.7 mb - 0.00 in0.0 mm 0.00 in0.0 mm
12:10 PM 82.7°F28.2°C 70.2°F21.2°C 66% 4.6 mph E7.4 kmh E 10.4 mph16.7 kmh 30.20 in1022.7 mb - 0.00 in0.0 mm 0.00 in0.0 mm
12:20 PM 83.2°F28.4°C 71.1°F21.7°C 67% 4.6 mph E7.4 kmh E 12.7 mph20.4 kmh 30.20 in1022.7 mb - 0.00 in0.0 mm 0.00 in0.0 mm
12:30 PM 83.6°F28.7°C 70.6°F21.4°C 65% 4.6 mph ENE7.4 kmh ENE 8.1 mph13.0 kmh 30.20 in1022.7 mb - 0.00 in0.0 mm 0.00 in0.0 mm
12:40 PM 83.0°F28.3°C 69.1°F20.6°C 63% 4.6 mph E7.4 kmh E 5.8 mph9.3 kmh 30.20 in1022.7 mb - 0.00 in0.0 mm 0.00 in0.0 mm
12:50 PM 83.5°F28.6°C 69.2°F20.7°C 62% 4.6 mph NE7.4 kmh NE 10.4 mph16.7 kmh 30.19 in1022.4 mb - 0.00 in0.0 mm 0.00 in0.0 mm
01:00 PM 83.4°F28.6°C 67.0°F19.4°C 58% 6.9 mph E11.1 kmh E 10.4 mph16.7 kmh 30.20 in1022.7 mb - 0.00 in0.0 mm 0.00 in0.0 mm
01:10 PM 83.6°F28.7°C 68.8°F20.4°C 61% 8.1 mph E13.0 kmh E 10.4 mph16.7 kmh 30.19 in1022.4 mb - 0.00 in0.0 mm 0.00 in0.0 mm
01:20 PM 84.3°F29.1°C 68.9°F20.5°C 60% 5.8 mph ESE9.3 kmh ESE 11.5 mph18.5 kmh 30.19 in1022.4 mb - 0.00 in0.0 mm 0.00 in0.0 mm
01:30 PM 84.4°F29.1°C 68.5°F20.3°C 59% 5.8 mph E9.3 kmh E 4.6 mph7.4 kmh 30.19 in1022.4 mb - 0.00 in0.0 mm 0.00 in0.0 mm
01:40 PM 84.6°F29.2°C 68.7°F20.4°C 59% 4.6 mph ESE7.4 kmh ESE 8.1 mph13.0 kmh 30.19 in1022.4 mb - 0.00 in0.0 mm 0.00 in0.0 mm
01:50 PM 84.4°F29.1°C 67.5°F19.7°C 57% 6.9 mph E11.1 kmh E 11.5 mph18.5 kmh 30.19 in1022.4 mb - 0.00 in0.0 mm 0.00 in0.0 mm
02:00 PM 83.9°F28.8°C 67.5°F19.7°C 58% 6.9 mph ENE11.1 kmh ENE 15.0 mph24.1 kmh 30.20 in1022.7 mb - 0.00 in0.0 mm 0.00 in0.0 mm
02:10 PM 84.7°F29.3°C 68.8°F20.4°C 59% 5.8 mph E9.3 kmh E 9.2 mph14.8 kmh 30.20 in1022.7 mb - 0.00 in0.0 mm 0.00 in0.0 mm
02:20 PM 84.2°F29.0°C 67.8°F19.9°C 58% 8.1 mph NE13.0 kmh NE 12.7 mph20.4 kmh 30.19 in1022.4 mb - 0.00 in0.0 mm 0.00 in0.0 mm
02:30 PM 83.7°F28.7°C 66.4°F19.1°C 56% 6.9 mph E11.1 kmh E 9.2 mph14.8 kmh 30.19 in1022.4 mb - 0.00 in0.0 mm 0.00 in0.0 mm
02:40 PM 83.9°F28.8°C 67.5°F19.7°C 58% 4.6 mph E7.4 kmh E 8.1 mph13.0 kmh 30.19 in1022.4 mb - 0.00 in0.0 mm 0.00 in0.0 mm
02:50 PM 84.1°F28.9°C 65.7°F18.7°C 54% 4.6 mph E7.4 kmh E 9.2 mph14.8 kmh 30.19 in1022.4 mb - 0.00 in0.0 mm 0.00 in0.0 mm
03:00 PM 84.4°F29.1°C 67.0°F19.4°C 56% 4.6 mph NE7.4 kmh NE 8.1 mph13.0 kmh 30.18 in1022.0 mb - 0.00 in0.0 mm 0.00 in0.0 mm
03:10 PM 84.0°F28.9°C 66.6°F19.2°C 56% 6.9 mph E11.1 kmh E 9.2 mph14.8 kmh 30.18 in1022.0 mb - 0.00 in0.0 mm 0.00 in0.0 mm
03:20 PM 84.4°F29.1°C 67.0°F19.4°C 56% 4.6 mph NE7.4 kmh NE 8.1 mph13.0 kmh 30.17 in1021.7 mb - 0.00 in0.0 mm 0.00 in0.0 mm
03:30 PM 84.3°F29.1°C 66.9°F19.4°C 56% 8.1 mph E13.0 kmh E 11.5 mph18.5 kmh 30.17 in1021.7 mb - 0.00 in0.0 mm 0.00 in0.0 mm
03:40 PM 83.8°F28.8°C 67.5°F19.7°C 58% 4.6 mph E7.4 kmh E 8.1 mph13.0 kmh 30.16 in1021.3 mb - 0.00 in0.0 mm 0.00 in0.0 mm
03:50 PM 83.4°F28.6°C 68.1°F20.1°C 60% 5.8 mph E9.3 kmh E 11.5 mph18.5 kmh 30.16 in1021.3 mb - 0.00 in0.0 mm 0.00 in0.0 mm
04:00 PM 82.9°F28.3°C 68.1°F20.1°C 61% 5.8 mph E9.3 kmh E 11.5 mph18.5 kmh 30.16 in1021.3 mb - 0.00 in0.0 mm 0.00 in0.0 mm
04:10 PM 83.0°F28.3°C 66.7°F19.3°C 58% 6.9 mph E11.1 kmh E 11.5 mph18.5 kmh 30.16 in1021.3 mb - 0.00 in0.0 mm 0.00 in0.0 mm
04:20 PM 83.0°F28.3°C 66.2°F19.0°C 57% 9.2 mph E14.8 kmh E 12.7 mph20.4 kmh 30.15 in1021.0 mb - 0.00 in0.0 mm 0.00 in0.0 mm
04:30 PM 83.5°F28.6°C 66.6°F19.2°C 57% 4.6 mph ENE7.4 kmh ENE 6.9 mph11.1 kmh 30.15 in1021.0 mb - 0.00 in0.0 mm 0.00 in0.0 mm
04:40 PM 83.7°F28.7°C 65.8°F18.8°C 55% 5.8 mph E9.3 kmh E 15.0 mph24.1 kmh 30.14 in1020.7 mb - 0.00 in0.0 mm 0.00 in0.0 mm
04:50 PM 82.8°F28.2°C 66.0°F18.9°C 57% 5.8 mph E9.3 kmh E 9.2 mph14.8 kmh 30.14 in1020.7 mb - 0.00 in0.0 mm 0.00 in0.0 mm
05:00 PM 82.8°F28.2°C 65.0°F18.3°C 55% 4.6 mph E7.4 kmh E 9.2 mph14.8 kmh 30.14 in1020.7 mb - 0.00 in0.0 mm 0.00 in0.0 mm
05:10 PM 83.0°F28.3°C 65.7°F18.7°C 56% 6.9 mph E11.1 kmh E 9.2 mph14.8 kmh 30.14 in1020.7 mb - 0.00 in0.0 mm 0.00 in0.0 mm
05:20 PM 83.2°F28.4°C 66.9°F19.4°C 58% 5.8 mph NE9.3 kmh NE 9.2 mph14.8 kmh 30.14 in1020.7 mb - 0.00 in0.0 mm 0.00 in0.0 mm
05:30 PM 83.0°F28.3°C 66.2°F19.0°C 57% 5.8 mph NE9.3 kmh NE 8.1 mph13.0 kmh 30.14 in1020.7 mb - 0.00 in0.0 mm 0.00 in0.0 mm
05:40 PM 82.7°F28.2°C 65.9°F18.8°C 57% 3.5 mph NE5.6 kmh NE 3.5 mph5.6 kmh 30.14 in1020.7 mb - 0.00 in0.0 mm 0.00 in0.0 mm
05:50 PM 82.7°F28.2°C 65.4°F18.6°C 56% 6.9 mph NE11.1 kmh NE 11.5 mph18.5 kmh 30.14 in1020.7 mb - 0.00 in0.0 mm 0.00 in0.0 mm
06:00 PM 82.5°F28.1°C 65.7°F18.7°C 57% 4.6 mph E7.4 kmh E 6.9 mph11.1 kmh 30.13 in1020.3 mb - 0.00 in0.0 mm 0.00 in0.0 mm
06:10 PM 82.4°F28.0°C 65.1°F18.4°C 56% 4.6 mph E7.4 kmh E 11.5 mph18.5 kmh 30.13 in1020.3 mb - 0.00 in0.0 mm 0.00 in0.0 mm
06:20 PM 81.9°F27.7°C 65.2°F18.4°C 57% 5.8 mph E9.3 kmh E 10.4 mph16.7 kmh 30.13 in1020.3 mb - 0.00 in0.0 mm 0.00 in0.0 mm
06:30 PM 81.2°F27.3°C 65.0°F18.3°C 58% 4.6 mph E7.4 kmh E 8.1 mph13.0 kmh 30.13 in1020.3 mb - 0.00 in0.0 mm 0.00 in0.0 mm
06:40 PM 80.9°F27.2°C 64.7°F18.2°C 58% 4.6 mph ENE7.4 kmh ENE 4.6 mph7.4 kmh 30.13 in1020.3 mb - 0.00 in0.0 mm 0.00 in0.0 mm
06:50 PM 80.9°F27.2°C 65.3°F18.5°C 59% 4.6 mph ENE7.4 kmh ENE 6.9 mph11.1 kmh 30.13 in1020.3 mb - 0.00 in0.0 mm 0.00 in0.0 mm
07:00 PM 80.8°F27.1°C 65.1°F18.4°C 59% 3.5 mph ENE5.6 kmh ENE 8.1 mph13.0 kmh 30.13 in1020.3 mb - 0.00 in0.0 mm 0.00 in0.0 mm
07:10 PM 80.7°F27.1°C 64.6°F18.1°C 58% 3.5 mph E5.6 kmh E 3.5 mph5.6 kmh 30.13 in1020.3 mb - 0.00 in0.0 mm 0.00 in0.0 mm
07:20 PM 80.3°F26.8°C 64.2°F17.9°C 58% 4.6 mph E7.4 kmh E 5.8 mph9.3 kmh 30.13 in1020.3 mb - 0.00 in0.0 mm 0.00 in0.0 mm
07:30 PM 80.1°F26.7°C 64.5°F18.1°C 59% 3.5 mph E5.6 kmh E 6.9 mph11.1 kmh 30.13 in1020.3 mb - 0.00 in0.0 mm 0.00 in0.0 mm
07:40 PM 79.4°F26.3°C 64.3°F17.9°C 60% 4.6 mph E7.4 kmh E 5.8 mph9.3 kmh 30.14 in1020.7 mb - 0.00 in0.0 mm 0.00 in0.0 mm
07:50 PM 78.7°F25.9°C 63.7°F17.6°C 60% 1.2 mph NE1.9 kmh NE 1.2 mph1.9 kmh 30.14 in1020.7 mb - 0.00 in0.0 mm 0.00 in0.0 mm
08:00 PM 78.2°F25.7°C 64.1°F17.8°C 62% 5.8 mph NE9.3 kmh NE 8.1 mph13.0 kmh 30.14 in1020.7 mb - 0.00 in0.0 mm 0.00 in0.0 mm
08:10 PM 77.9°F25.5°C 63.8°F17.7°C 62% 3.5 mph NNE5.6 kmh NNE 6.9 mph11.1 kmh 30.14 in1020.7 mb - 0.00 in0.0 mm 0.00 in0.0 mm
08:20 PM 77.5°F25.3°C 63.5°F17.5°C 62% 3.5 mph ENE5.6 kmh ENE 4.6 mph7.4 kmh 30.14 in1020.7 mb - 0.00 in0.0 mm 0.00 in0.0 mm
08:30 PM 77.3°F25.2°C 63.3°F17.4°C 62% 5.8 mph NE9.3 kmh NE 10.4 mph16.7 kmh 30.14 in1020.7 mb - 0.00 in0.0 mm 0.00 in0.0 mm
08:40 PM 77.2°F25.1°C 63.2°F17.3°C 62% 3.5 mph NE5.6 kmh NE 6.9 mph11.1 kmh 30.14 in1020.7 mb - 0.00 in0.0 mm 0.00 in0.0 mm
08:50 PM 77.1°F25.1°C 62.6°F17.0°C 61% 3.5 mph NE5.6 kmh NE 4.6 mph7.4 kmh 30.15 in1021.0 mb - 0.00 in0.0 mm 0.00 in0.0 mm
09:00 PM 76.9°F24.9°C 62.4°F16.9°C 61% 3.5 mph NE5.6 kmh NE 5.8 mph9.3 kmh 30.15 in1021.0 mb - 0.00 in0.0 mm 0.00 in0.0 mm
09:10 PM 76.8°F24.9°C 62.8°F17.1°C 62% 4.6 mph NE7.4 kmh NE 6.9 mph11.1 kmh 30.15 in1021.0 mb - 0.00 in0.0 mm 0.00 in0.0 mm
09:20 PM 76.8°F24.9°C 62.3°F16.8°C 61% 1.2 mph NE1.9 kmh NE 1.2 mph1.9 kmh 30.15 in1021.0 mb - 0.00 in0.0 mm 0.00 in0.0 mm
09:30 PM 76.7°F24.8°C 63.2°F17.3°C 63% 2.3 mph ENE3.7 kmh ENE 3.5 mph5.6 kmh 30.15 in1021.0 mb - 0.00 in0.0 mm 0.00 in0.0 mm
09:40 PM 76.6°F24.8°C 64.0°F17.8°C 65% 6.9 mph NE11.1 kmh NE 10.4 mph16.7 kmh 30.15 in1021.0 mb - 0.00 in0.0 mm 0.00 in0.0 mm
09:50 PM 76.6°F24.8°C 63.6°F17.6°C 64% 3.5 mph E5.6 kmh E 3.5 mph5.6 kmh 30.15 in1021.0 mb - 0.00 in0.0 mm 0.00 in0.0 mm
10:00 PM 76.7°F24.8°C 63.2°F17.3°C 63% 4.6 mph NE7.4 kmh NE 9.2 mph14.8 kmh 30.15 in1021.0 mb - 0.00 in0.0 mm 0.00 in0.0 mm
10:10 PM 76.6°F24.8°C 63.1°F17.3°C 63% 3.5 mph NE5.6 kmh NE 5.8 mph9.3 kmh 30.15 in1021.0 mb - 0.00 in0.0 mm 0.00 in0.0 mm
10:20 PM 76.4°F24.7°C 63.3°F17.4°C 64% 3.5 mph NE5.6 kmh NE 3.5 mph5.6 kmh 30.15 in1021.0 mb - 0.00 in0.0 mm 0.00 in0.0 mm
10:30 PM 76.3°F24.6°C 62.8°F17.1°C 63% 2.3 mph NE3.7 kmh NE 3.5 mph5.6 kmh 30.15 in1021.0 mb - 0.00 in0.0 mm 0.00 in0.0 mm
10:40 PM 76.4°F24.7°C 64.2°F17.9°C 66% 4.6 mph NE7.4 kmh NE 6.9 mph11.1 kmh 30.15 in1021.0 mb - 0.00 in0.0 mm 0.00 in0.0 mm
10:50 PM 76.4°F24.7°C 64.6°F18.1°C 67% 3.5 mph ENE5.6 kmh ENE 6.9 mph11.1 kmh 30.15 in1021.0 mb - 0.00 in0.0 mm 0.00 in0.0 mm
11:00 PM 76.5°F24.7°C 63.8°F17.7°C 65% 4.6 mph NE7.4 kmh NE 10.4 mph16.7 kmh 30.15 in1021.0 mb - 0.00 in0.0 mm 0.00 in0.0 mm
11:10 PM 76.4°F24.7°C 63.8°F17.7°C 65% 4.6 mph NE7.4 kmh NE 4.6 mph7.4 kmh 30.15 in1021.0 mb - 0.00 in0.0 mm 0.00 in0.0 mm
11:20 PM 76.2°F24.6°C 63.6°F17.6°C 65% 2.3 mph NE3.7 kmh NE 3.5 mph5.6 kmh 30.15 in1021.0 mb - 0.00 in0.0 mm 0.00 in0.0 mm
11:30 PM 76.1°F24.5°C 63.5°F17.5°C 65% 3.5 mph NE5.6 kmh NE 4.6 mph7.4 kmh 30.15 in1021.0 mb - 0.00 in0.0 mm 0.00 in0.0 mm
11:40 PM 75.9°F24.4°C 62.9°F17.2°C 64% 3.5 mph ENE5.6 kmh ENE 4.6 mph7.4 kmh 30.15 in1021.0 mb - 0.00 in0.0 mm 0.00 in0.0 mm
11:50 PM 75.8°F24.3°C 62.8°F17.1°C 64% 3.5 mph E5.6 kmh E 4.6 mph7.4 kmh 30.14 in1020.7 mb - 0.00 in0.0 mm 0.00 in0.0 mm